createdAt,value
2022-08-16T00:01:10.522Z,43.78
2022-08-16T00:04:01.879Z,44.13
2022-08-16T00:06:53.714Z,43.00
2022-08-16T00:09:42.861Z,42.95
2022-08-16T00:12:32.156Z,44.83
2022-08-16T00:15:24.740Z,43.20
2022-08-16T00:18:33.544Z,45.40
2022-08-16T00:21:23.327Z,45.58
2022-08-16T00:24:12.755Z,46.97
2022-08-16T00:27:01.713Z,46.58
2022-08-16T00:30:00.595Z,46.42
2022-08-16T00:33:00.186Z,46.55
2022-08-16T00:35:48.641Z,46.83
2022-08-16T00:38:43.242Z,47.42
2022-08-16T00:41:33.170Z,51.05
2022-08-16T00:44:31.883Z,55.60
2022-08-16T00:47:22.606Z,52.55
2022-08-16T00:50:12.320Z,51.13
2022-08-16T00:53:01.260Z,49.00
2022-08-16T00:55:56.117Z,49.47
2022-08-16T00:58:47.432Z,51.22
2022-08-16T01:01:36.060Z,50.90
2022-08-16T01:04:29.986Z,51.25
2022-08-16T01:07:18.946Z,52.13
2022-08-16T01:10:16.474Z,52.60
2022-08-16T01:13:12.110Z,53.05
2022-08-16T01:16:03.895Z,52.08
2022-08-16T01:19:08.862Z,53.55
2022-08-16T01:22:47.700Z,53.53
2022-08-16T01:25:19.115Z,54.53
2022-08-16T01:28:19.831Z,54.80
2022-08-16T01:31:10.769Z,58.90
2022-08-16T01:33:59.373Z,56.65
2022-08-16T01:36:48.257Z,55.97
2022-08-16T01:39:47.599Z,57.08
2022-08-16T01:42:37.604Z,55.97
2022-08-16T01:45:39.806Z,56.45
2022-08-16T01:48:32.634Z,55.53
2022-08-16T01:51:25.660Z,56.03
2022-08-16T01:54:15.359Z,54.50
2022-08-16T01:57:13.216Z,56.00
2022-08-16T02:00:10.521Z,55.92
2022-08-16T02:03:08.366Z,56.83
2022-08-16T02:06:01.066Z,56.00
2022-08-16T02:08:51.198Z,58.47
2022-08-16T02:11:47.764Z,57.17
2022-08-16T02:14:38.318Z,57.63
2022-08-16T02:17:28.644Z,57.28
2022-08-16T02:20:19.896Z,57.28
2022-08-16T02:23:17.221Z,58.17
2022-08-16T02:26:06.702Z,57.30
2022-08-16T02:28:56.753Z,58.72
2022-08-16T02:32:03.332Z,60.88
2022-08-16T02:34:56.555Z,60.40
2022-08-16T02:37:53.048Z,60.47
2022-08-16T02:40:44.750Z,62.80
2022-08-16T02:43:35.230Z,62.75
2022-08-16T02:46:33.322Z,63.92
2022-08-16T02:49:59.168Z,65.75
2022-08-16T02:52:34.249Z,66.45
2022-08-16T02:55:41.185Z,66.60
2022-08-16T02:58:32.696Z,67.13
2022-08-16T03:01:33.663Z,69.45
2022-08-16T03:04:50.562Z,67.60
2022-08-16T03:07:50.816Z,67.57
2022-08-16T03:10:40.666Z,70.07
2022-08-16T03:13:29.393Z,71.65
2022-08-16T03:16:38.023Z,73.70
2022-08-16T03:19:47.024Z,73.75
2022-08-16T03:22:36.795Z,72.60
2022-08-16T03:25:40.907Z,72.10
2022-08-16T03:28:33.319Z,75.85
2022-08-16T03:31:22.064Z,74.10
2022-08-16T03:34:11.341Z,75.18
2022-08-16T03:37:02.332Z,75.18
2022-08-16T03:39:56.594Z,73.80
2022-08-16T03:43:19.150Z,74.50
2022-08-16T03:46:02.206Z,72.90
2022-08-16T03:48:56.962Z,73.28
2022-08-16T03:51:45.539Z,73.78
2022-08-16T03:54:53.736Z,73.97
2022-08-16T03:57:52.358Z,74.55
2022-08-16T04:00:44.837Z,75.32
2022-08-16T04:03:37.630Z,74.85
2022-08-16T04:06:26.558Z,74.80
2022-08-16T04:09:15.936Z,73.90
2022-08-16T04:12:11.046Z,75.25
2022-08-16T04:15:17.265Z,76.88
2022-08-16T04:18:24.166Z,76.07
2022-08-16T04:21:14.938Z,74.60
2022-08-16T04:24:18.014Z,76.20
2022-08-16T04:27:09.080Z,74.47
2022-08-16T04:30:03.052Z,75.65
2022-08-16T04:32:55.759Z,75.25
2022-08-16T04:35:49.545Z,76.20
2022-08-16T04:38:38.655Z,76.60
2022-08-16T04:41:32.852Z,77.72
2022-08-16T04:44:32.726Z,80.47
2022-08-16T04:47:36.812Z,78.72
2022-08-16T04:50:33.085Z,78.38
2022-08-16T04:53:41.727Z,75.85
2022-08-16T04:56:31.119Z,74.47
2022-08-16T04:59:19.495Z,73.85
2022-08-16T05:02:41.917Z,72.68
2022-08-16T05:05:17.874Z,71.18
2022-08-16T05:08:29.424Z,67.95
2022-08-16T05:11:22.559Z,69.15
2022-08-16T05:14:11.550Z,66.72
2022-08-16T05:17:09.545Z,65.68
2022-08-16T05:20:00.433Z,66.75
2022-08-16T05:22:57.582Z,63.53
2022-08-16T05:25:48.257Z,64.97
2022-08-16T05:28:40.183Z,63.35
2022-08-16T05:31:31.217Z,63.45
2022-08-16T05:34:22.471Z,64.28
2022-08-16T05:37:16.124Z,64.55
2022-08-16T05:40:07.947Z,67.80
2022-08-16T05:42:57.487Z,70.32
2022-08-16T05:45:50.960Z,72.32
2022-08-16T05:48:39.690Z,74.03
2022-08-16T05:51:38.181Z,75.97
2022-08-16T05:54:29.810Z,77.47
2022-08-16T05:57:23.141Z,78.13
2022-08-16T06:00:22.336Z,77.93
2022-08-16T06:03:15.683Z,77.95
2022-08-16T06:06:28.117Z,78.57
2022-08-16T06:09:19.861Z,76.47
2022-08-16T06:12:09.386Z,75.00
2022-08-16T06:15:01.812Z,76.15
2022-08-16T06:17:52.743Z,74.25
2022-08-16T06:20:55.262Z,74.40
2022-08-16T06:23:45.596Z,74.97
2022-08-16T06:26:37.460Z,73.22
2022-08-16T06:29:34.647Z,72.57
2022-08-16T06:32:27.316Z,70.40
2022-08-16T06:35:18.802Z,68.10
2022-08-16T06:38:32.048Z,66.80
2022-08-16T06:41:20.387Z,68.55
2022-08-16T06:44:20.643Z,67.55
2022-08-16T06:47:17.182Z,64.88
2022-08-16T06:50:07.630Z,62.53
2022-08-16T06:53:08.522Z,63.10
2022-08-16T06:56:14.676Z,60.85
2022-08-16T06:59:48.654Z,59.00
2022-08-16T07:02:51.409Z,56.78
2022-08-16T07:05:41.961Z,57.58
2022-08-16T07:08:37.873Z,54.15
2022-08-16T07:11:47.970Z,53.38
2022-08-16T07:14:48.000Z,51.83
2022-08-16T07:17:39.014Z,51.33
2022-08-16T07:20:43.583Z,50.28
2022-08-16T07:23:39.120Z,46.90
2022-08-16T07:26:31.731Z,47.97
2022-08-16T07:29:20.059Z,45.53
2022-08-16T07:32:10.836Z,43.05
2022-08-16T07:34:59.540Z,43.38
2022-08-16T07:37:48.579Z,42.25
2022-08-16T07:41:01.980Z,40.70
2022-08-16T07:43:56.660Z,45.30
2022-08-16T07:46:47.294Z,43.10
2022-08-16T07:49:52.863Z,40.40
2022-08-16T07:52:50.289Z,37.90
2022-08-16T07:55:45.912Z,34.58
2022-08-16T07:58:43.342Z,33.13
2022-08-16T08:01:38.629Z,34.80
2022-08-16T08:04:32.476Z,33.47
2022-08-16T08:07:27.680Z,34.78
2022-08-16T08:10:29.166Z,34.08
2022-08-16T08:13:20.197Z,31.98
2022-08-16T08:16:29.492Z,29.45
2022-08-16T08:19:21.329Z,29.83
2022-08-16T08:22:19.340Z,28.25
2022-08-16T08:25:16.291Z,25.58
2022-08-16T08:28:05.542Z,24.25
2022-08-16T08:31:03.876Z,25.00
2022-08-16T08:34:00.849Z,23.30
2022-08-16T08:36:55.618Z,22.58
2022-08-16T08:40:14.057Z,21.13
2022-08-16T08:43:12.646Z,20.45
2022-08-16T08:46:21.224Z,19.95
2022-08-16T08:49:11.466Z,20.70
2022-08-16T08:52:07.985Z,21.00
2022-08-16T08:54:56.978Z,20.58
2022-08-16T08:57:47.630Z,19.50
2022-08-16T09:00:54.863Z,19.50
2022-08-16T09:03:49.968Z,18.83
2022-08-16T09:06:43.709Z,18.65
2022-08-16T09:09:41.037Z,19.83
2022-08-16T09:12:36.408Z,18.35
2022-08-16T09:15:32.978Z,17.10
2022-08-16T09:18:24.987Z,17.42
2022-08-16T09:21:16.676Z,18.42
2022-08-16T09:24:10.073Z,17.35
2022-08-16T09:27:03.622Z,15.73
2022-08-16T09:29:59.779Z,17.67
2022-08-16T09:32:54.851Z,17.25
2022-08-16T09:35:43.329Z,16.45
2022-08-16T09:38:32.929Z,15.98
2022-08-16T09:41:21.326Z,16.20
2022-08-16T09:45:09.580Z,14.02
2022-08-16T09:47:23.532Z,13.07
2022-08-16T09:50:13.870Z,12.85
2022-08-16T09:53:16.735Z,14.20
2022-08-16T09:56:11.325Z,14.02
2022-08-16T09:59:04.977Z,12.57
2022-08-16T10:01:57.772Z,13.52
2022-08-16T10:04:52.928Z,15.50
2022-08-16T10:07:45.405Z,12.23
2022-08-16T10:10:34.383Z,13.02
2022-08-16T10:13:21.779Z,14.40
2022-08-16T10:19:06.475Z,13.93
2022-08-16T10:21:56.622Z,11.77
2022-08-16T10:24:56.074Z,13.13
2022-08-16T10:27:53.340Z,11.95
2022-08-16T10:30:45.664Z,12.45
2022-08-16T10:33:35.344Z,11.98
2022-08-16T10:36:38.834Z,12.15
2022-08-16T10:39:41.147Z,13.63
2022-08-16T10:42:30.898Z,11.73
2022-08-16T10:45:20.326Z,11.85
2022-08-16T10:48:27.251Z,12.10
2022-08-16T10:51:17.295Z,10.52
2022-08-16T10:54:08.436Z,11.50
2022-08-16T10:57:17.031Z,10.77
2022-08-16T11:00:21.732Z,11.27
2022-08-16T11:06:20.176Z,10.68
2022-08-16T11:09:25.256Z,11.35
2022-08-16T11:12:14.970Z,12.75
2022-08-16T11:15:12.029Z,11.55
2022-08-16T11:21:09.583Z,12.90
2022-08-16T11:24:42.489Z,13.27
2022-08-16T11:27:35.390Z,11.60
2022-08-16T11:30:28.434Z,12.55
2022-08-16T11:36:36.767Z,12.68
2022-08-16T11:39:27.214Z,13.07
2022-08-16T11:42:23.073Z,13.63
2022-08-16T11:45:17.836Z,13.52
2022-08-16T11:48:08.785Z,13.40
2022-08-16T11:50:58.570Z,12.30
2022-08-16T11:53:47.136Z,11.98
2022-08-16T11:56:51.896Z,13.90
2022-08-16T11:59:41.708Z,13.13
2022-08-16T12:02:31.894Z,13.05
2022-08-16T12:05:21.596Z,13.48
2022-08-16T12:08:12.665Z,12.30
2022-08-16T12:11:02.425Z,12.27
2022-08-16T12:13:53.315Z,11.23
2022-08-16T12:16:48.614Z,12.02
2022-08-16T12:19:44.217Z,15.52
2022-08-16T12:22:33.994Z,11.85
2022-08-16T12:25:27.839Z,11.35
2022-08-16T12:28:16.912Z,11.13
2022-08-16T12:31:27.214Z,11.48
2022-08-16T12:34:28.683Z,12.75
2022-08-16T12:37:17.767Z,10.38
2022-08-16T12:40:23.813Z,10.45
2022-08-16T12:43:14.525Z,10.60
2022-08-16T12:46:03.737Z,10.52
2022-08-16T12:48:58.209Z,9.88
2022-08-16T12:51:58.873Z,10.25
2022-08-16T12:54:54.903Z,9.85
2022-08-16T12:57:44.565Z,11.00
2022-08-16T13:00:48.544Z,10.50
2022-08-16T13:03:40.631Z,13.10
2022-08-16T13:06:33.699Z,15.05
2022-08-16T13:09:26.665Z,14.50
2022-08-16T13:12:20.109Z,12.40
2022-08-16T13:15:12.632Z,12.57
2022-08-16T13:18:01.117Z,12.52
2022-08-16T13:20:59.671Z,13.10
2022-08-16T13:23:49.468Z,13.63
2022-08-16T13:26:39.643Z,12.88
2022-08-16T13:29:43.661Z,13.30
2022-08-16T13:32:40.654Z,20.17
2022-08-16T13:35:34.512Z,16.55
2022-08-16T13:38:26.089Z,13.27
2022-08-16T13:41:19.466Z,14.35
2022-08-16T13:44:09.458Z,12.32
2022-08-16T13:46:58.126Z,12.10
2022-08-16T13:49:47.142Z,12.55
2022-08-16T13:52:39.965Z,11.57
2022-08-16T13:55:29.109Z,12.32
2022-08-16T13:58:37.367Z,12.32
2022-08-16T14:01:28.016Z,13.82
2022-08-16T14:04:26.139Z,12.55
2022-08-16T14:07:19.952Z,13.20
2022-08-16T14:10:15.326Z,11.63
2022-08-16T14:13:03.950Z,12.90
2022-08-16T14:15:55.793Z,11.13
2022-08-16T14:18:44.189Z,11.68
2022-08-16T14:21:35.856Z,12.20
2022-08-16T14:24:30.109Z,11.30
2022-08-16T14:27:21.349Z,11.52
2022-08-16T14:30:15.609Z,11.32
2022-08-16T14:33:06.225Z,11.10
2022-08-16T14:35:55.161Z,11.27
2022-08-16T14:38:43.571Z,12.13
2022-08-16T14:41:32.067Z,11.90
2022-08-16T14:44:20.535Z,14.32
2022-08-16T14:47:09.348Z,12.68
2022-08-16T14:50:01.837Z,14.50
2022-08-16T14:52:56.594Z,16.92
2022-08-16T14:55:46.248Z,16.20
2022-08-16T14:58:38.121Z,17.35
2022-08-16T15:01:57.441Z,12.55
2022-08-16T15:04:40.086Z,11.98
2022-08-16T15:07:40.143Z,13.38
2022-08-16T15:10:29.351Z,13.38
2022-08-16T15:13:21.599Z,15.38
2022-08-16T15:16:10.095Z,12.77
2022-08-16T15:18:59.474Z,11.80
2022-08-16T15:21:53.694Z,13.90
2022-08-16T15:24:44.306Z,12.75
2022-08-16T15:27:36.782Z,11.35
2022-08-16T15:30:56.707Z,12.20
2022-08-16T15:33:43.306Z,14.10
2022-08-16T15:36:32.153Z,12.93
2022-08-16T15:39:26.955Z,13.55
2022-08-16T15:42:27.397Z,12.93
2022-08-16T15:45:38.098Z,13.80
2022-08-16T15:48:30.413Z,16.88
2022-08-16T15:51:18.921Z,12.13
2022-08-16T15:54:29.387Z,10.43
2022-08-16T15:57:17.209Z,11.32
2022-08-16T16:00:26.584Z,11.05
2022-08-16T16:03:17.404Z,10.38
2022-08-16T16:06:06.009Z,10.75
2022-08-16T16:08:54.635Z,9.80
2022-08-16T16:11:43.264Z,9.93
2022-08-16T16:14:32.006Z,11.45
2022-08-16T16:17:21.957Z,12.57
2022-08-16T16:20:14.878Z,12.40
2022-08-16T16:23:10.569Z,11.93
2022-08-16T16:26:05.789Z,11.20
2022-08-16T16:29:07.902Z,10.98
2022-08-16T16:32:05.878Z,11.35
2022-08-16T16:34:59.026Z,11.40
2022-08-16T16:37:48.766Z,11.65
2022-08-16T16:40:46.560Z,11.45
2022-08-16T16:43:45.192Z,10.43
2022-08-16T16:46:42.487Z,14.80
2022-08-16T16:49:33.850Z,14.05
2022-08-16T16:52:31.354Z,12.82
2022-08-16T16:55:33.355Z,12.98
2022-08-16T16:58:53.978Z,10.93
2022-08-16T17:01:59.384Z,16.70
2022-08-16T17:04:50.157Z,12.27
2022-08-16T17:07:40.633Z,11.02
2022-08-16T17:13:39.230Z,10.57
2022-08-16T17:16:33.017Z,11.68
2022-08-16T17:19:23.868Z,12.57
2022-08-16T17:22:15.518Z,11.40
2022-08-16T17:25:07.588Z,10.30
2022-08-16T17:27:56.700Z,10.57
2022-08-16T17:30:47.939Z,10.07
2022-08-16T17:33:54.812Z,11.93
2022-08-16T17:36:52.692Z,13.60
2022-08-16T17:39:26.047Z,12.02
2022-08-16T17:39:59.737Z,12.82
2022-08-16T17:42:53.577Z,15.07
2022-08-16T17:45:43.422Z,16.13
2022-08-16T17:48:32.555Z,16.08
2022-08-16T17:51:21.444Z,13.43
2022-08-16T17:54:20.248Z,15.25
2022-08-16T17:57:18.274Z,12.93
2022-08-16T18:00:15.840Z,12.10
2022-08-16T18:03:15.082Z,12.00
2022-08-16T18:06:15.813Z,13.00
2022-08-16T18:09:05.169Z,13.38
2022-08-16T18:11:54.995Z,12.68
2022-08-16T18:14:52.268Z,12.25
2022-08-16T18:17:43.988Z,12.25
2022-08-16T18:20:50.101Z,11.10
2022-08-16T18:23:38.907Z,12.73
2022-08-16T18:26:27.434Z,13.20
2022-08-16T18:29:16.332Z,12.80
2022-08-16T18:32:05.682Z,12.48
2022-08-16T18:34:55.491Z,12.27
2022-08-16T18:37:44.028Z,12.35
2022-08-16T18:40:33.249Z,13.38
2022-08-16T18:44:00.898Z,13.30
2022-08-16T18:46:32.379Z,13.13
2022-08-16T18:49:21.012Z,13.23
2022-08-16T18:52:25.538Z,13.45
2022-08-16T18:55:15.044Z,13.45
2022-08-16T18:58:04.725Z,14.82
2022-08-16T19:00:56.353Z,16.48
2022-08-16T19:03:45.581Z,16.45
2022-08-16T19:06:33.977Z,16.77
2022-08-16T19:09:23.789Z,17.33
2022-08-16T19:12:12.311Z,19.23
2022-08-16T19:15:07.255Z,20.00
2022-08-16T19:17:56.498Z,18.73
2022-08-16T19:20:45.818Z,18.95
2022-08-16T19:23:37.276Z,19.13
2022-08-16T19:26:27.171Z,20.58
2022-08-16T19:29:16.153Z,20.38
2022-08-16T19:32:05.852Z,18.15
2022-08-16T19:34:56.619Z,19.00
2022-08-16T19:37:46.143Z,18.42
2022-08-16T19:40:37.637Z,19.00
2022-08-16T19:43:28.301Z,17.63
2022-08-16T19:46:17.452Z,20.67
2022-08-16T19:49:05.961Z,19.58
2022-08-16T19:51:54.968Z,20.48
2022-08-16T19:54:44.115Z,20.40
2022-08-16T19:57:32.843Z,20.63
2022-08-16T20:00:24.262Z,21.13
2022-08-16T20:03:24.726Z,21.45
2022-08-16T20:06:13.412Z,19.98
2022-08-16T20:09:22.900Z,20.77
2022-08-16T20:12:13.240Z,21.73
2022-08-16T20:15:01.922Z,23.40
2022-08-16T20:17:52.070Z,21.27
2022-08-16T20:20:43.143Z,22.15
2022-08-16T20:23:31.597Z,21.25
2022-08-16T20:26:23.779Z,22.85
2022-08-16T20:29:12.199Z,24.05
2022-08-16T20:32:01.051Z,25.25
2022-08-16T20:34:53.579Z,25.52
2022-08-16T20:37:43.079Z,23.00
2022-08-16T20:40:35.049Z,21.13
2022-08-16T20:43:24.055Z,20.08
2022-08-16T20:46:12.640Z,21.10
2022-08-16T20:49:01.043Z,19.67
2022-08-16T20:51:55.884Z,20.38
2022-08-16T20:54:48.003Z,21.80
2022-08-16T20:57:38.025Z,20.90
2022-08-16T21:00:26.515Z,20.02
2022-08-16T21:03:15.452Z,21.00
2022-08-16T21:06:05.556Z,22.48
2022-08-16T21:08:55.554Z,22.23
2022-08-16T21:11:44.105Z,24.42
2022-08-16T21:14:34.310Z,24.42
2022-08-16T21:17:22.999Z,24.58
2022-08-16T21:20:12.727Z,26.75
2022-08-16T21:23:03.614Z,26.80
2022-08-16T21:25:59.308Z,28.35
2022-08-16T21:28:48.191Z,37.08
2022-08-16T21:31:37.021Z,29.60
2022-08-16T21:34:25.393Z,28.20
2022-08-16T21:37:15.718Z,29.02
2022-08-16T21:40:05.946Z,29.58
2022-08-16T21:42:56.210Z,29.35
2022-08-16T21:45:46.263Z,31.58
2022-08-16T21:48:36.315Z,29.83
2022-08-16T21:51:29.048Z,28.63
2022-08-16T21:54:17.557Z,29.23
2022-08-16T21:57:10.614Z,27.77
2022-08-16T22:00:01.013Z,28.20
2022-08-16T22:02:51.329Z,28.13
2022-08-16T22:05:42.677Z,27.35
2022-08-16T22:08:31.586Z,28.85
2022-08-16T22:11:20.768Z,30.48
2022-08-16T22:14:09.826Z,30.25
2022-08-16T22:16:59.813Z,29.13
2022-08-16T22:19:48.230Z,28.58
2022-08-16T22:22:37.542Z,29.73
2022-08-16T22:25:26.227Z,27.70
2022-08-16T22:28:15.886Z,26.50
2022-08-16T22:31:04.271Z,27.27
2022-08-16T22:33:56.815Z,25.88
2022-08-16T22:36:45.500Z,27.65
2022-08-16T22:39:34.111Z,27.77
2022-08-16T22:42:23.224Z,28.17
2022-08-16T22:45:13.247Z,28.08
2022-08-16T22:48:01.733Z,29.60
2022-08-16T22:50:51.794Z,30.00
2022-08-16T22:53:40.394Z,29.67
2022-08-16T22:56:29.383Z,29.80
2022-08-16T22:59:17.923Z,36.50
2022-08-16T23:02:09.937Z,33.67
2022-08-16T23:04:58.504Z,31.95
2022-08-16T23:07:49.212Z,32.72
2022-08-16T23:10:38.399Z,33.42
2022-08-16T23:13:28.080Z,33.30
2022-08-16T23:16:17.148Z,35.35
2022-08-16T23:19:09.394Z,36.42
2022-08-16T23:21:58.106Z,35.28
2022-08-16T23:24:56.991Z,34.60
2022-08-16T23:27:45.548Z,34.35
2022-08-16T23:30:36.784Z,35.97
2022-08-16T23:33:29.724Z,35.72
2022-08-16T23:36:18.060Z,35.78
2022-08-16T23:39:06.568Z,35.80
2022-08-16T23:41:56.735Z,37.40
2022-08-16T23:44:59.076Z,37.50
2022-08-16T23:47:47.752Z,38.65
2022-08-16T23:50:38.344Z,37.25
2022-08-16T23:53:28.830Z,38.67
2022-08-16T23:56:20.416Z,40.40
2022-08-16T23:59:10.275Z,42.85
